EGXW/WTN METAR and TAF weather

Enter ICAO airport designator
Station Type Date Time Source
EGXW METAR 2020/09/28 07:50 UTC NOAA

EGXW 280750Z 27008KT 9999 FEW030 BKN080 BKN250 07/05 Q1012 NOSIG RMK BLU BLU


Station Type Date Time Source
EGXW Decoded METAR 2020/09/28 07:50 UTC NOAA

Waddington, United Kingdom (EGXW) 53-10N 000-31W 0M
Sep 28, 2020 - 03:50 AM EDT / 2020.09.28 0750 UTC
Wind: from the W (270 degrees) at 9 MPH (8 KT):0
Visibility: greater than 7 mile(s):0
Sky conditions: mostly cloudy
Temperature: 44 F (7 C)
Dew Point: 41 F (5 C)
Relative Humidity: 87%
Pressure (altimeter): 29.88 in. Hg (1012 hPa)
ob: EGXW 280750Z 27008KT 9999 FEW030 BKN080 BKN250 07/05 Q1012 NOSIG RMK BLU BLU
cycle: 8

Station Type Date Time Source
EGXW TAF 2020/09/28 09:51 UTC NOAA

TAF EGXW 280744Z 2809/2903 28007KT 9999 FEW030
TEMPO 2818/2903 BKN020 PROB30
TEMPO 2820/2903 BKN010

Example: see airport list